sensor_id;sensor_type;location;lat;lon;timestamp;pressure;altitude;pressure_sealevel;temperature;humidity
72465;BME280;60471;52.150;4.508;2023-04-30T00:00:22;102144.50;;;11.06;68.62
72465;BME280;60471;52.150;4.508;2023-04-30T00:02:48;102144.81;;;10.96;69.13
72465;BME280;60471;52.150;4.508;2023-04-30T00:05:15;102136.75;;;11.01;69.19
72465;BME280;60471;52.150;4.508;2023-04-30T00:07:41;102142.75;;;11.06;69.21
72465;BME280;60471;52.150;4.508;2023-04-30T00:10:09;102146.72;;;11.21;68.86
72465;BME280;60471;52.150;4.508;2023-04-30T00:12:36;102139.38;;;11.01;68.88
72465;BME280;60471;52.150;4.508;2023-04-30T00:15:04;102141.97;;;11.02;69.26
72465;BME280;60471;52.150;4.508;2023-04-30T00:17:30;102146.44;;;11.00;69.09
72465;BME280;60471;52.150;4.508;2023-04-30T00:19:56;102146.78;;;10.88;69.65
72465;BME280;60471;52.150;4.508;2023-04-30T00:22:22;102146.00;;;10.85;69.36
72465;BME280;60471;52.150;4.508;2023-04-30T00:24:49;102143.97;;;10.94;69.63
72465;BME280;60471;52.150;4.508;2023-04-30T00:27:15;102153.41;;;11.03;69.52
72465;BME280;60471;52.150;4.508;2023-04-30T00:29:41;102146.69;;;10.91;69.31
72465;BME280;60471;52.150;4.508;2023-04-30T00:32:07;102150.47;;;10.83;69.80
72465;BME280;60471;52.150;4.508;2023-04-30T00:34:34;102150.38;;;10.86;70.17
72465;BME280;60471;52.150;4.508;2023-04-30T00:37:00;102153.66;;;10.94;69.65
72465;BME280;60471;52.150;4.508;2023-04-30T00:39:26;102134.84;;;10.75;70.12
72465;BME280;60471;52.150;4.508;2023-04-30T00:41:52;102146.69;;;10.60;70.61
72465;BME280;60471;52.150;4.508;2023-04-30T00:44:18;102155.50;;;10.59;71.09
72465;BME280;60471;52.150;4.508;2023-04-30T00:46:45;102157.28;;;10.59;71.44
72465;BME280;60471;52.150;4.508;2023-04-30T00:49:11;102150.41;;;10.53;71.43
72465;BME280;60471;52.150;4.508;2023-04-30T00:51:39;102155.53;;;10.58;71.49
72465;BME280;60471;52.150;4.508;2023-04-30T00:54:07;102158.16;;;10.59;71.15
72465;BME280;60471;52.150;4.508;2023-04-30T00:56:33;102155.97;;;10.75;71.51
72465;BME280;60471;52.150;4.508;2023-04-30T00:59:00;102150.38;;;10.86;70.58
72465;BME280;60471;52.150;4.508;2023-04-30T01:01:27;102151.84;;;10.65;70.99
72465;BME280;60471;52.150;4.508;2023-04-30T01:03:56;102158.53;;;10.78;71.50
72465;BME280;60471;52.150;4.508;2023-04-30T01:06:24;102151.31;;;10.83;70.97
72465;BME280;60471;52.150;4.508;2023-04-30T01:08:52;102154.09;;;10.79;71.33
72465;BME280;60471;52.150;4.508;2023-04-30T01:11:31;102154.44;;;10.66;72.07
72465;BME280;60471;52.150;4.508;2023-04-30T01:14:24;102155.91;;;10.44;72.47
72465;BME280;60471;52.150;4.508;2023-04-30T01:17:05;102155.88;;;10.45;73.07
72465;BME280;60471;52.150;4.508;2023-04-30T01:19:43;102150.38;;;10.55;72.42
72465;BME280;60471;52.150;4.508;2023-04-30T01:25:20;102156.19;;;10.33;73.19
72465;BME280;60471;52.150;4.508;2023-04-30T01:28:09;102159.84;;;10.28;73.97
72465;BME280;60471;52.150;4.508;2023-04-30T01:30:40;102160.34;;;10.43;73.72
72465;BME280;60471;52.150;4.508;2023-04-30T01:33:10;102160.72;;;10.28;73.39
72465;BME280;60471;52.150;4.508;2023-04-30T01:44:14;102157.06;;;10.66;73.48
72465;BME280;60471;52.150;4.508;2023-04-30T01:46:53;102163.31;;;10.62;72.98
72465;BME280;60471;52.150;4.508;2023-04-30T01:52:59;102165.97;;;10.62;72.85
72465;BME280;60471;52.150;4.508;2023-04-30T01:55:35;102170.22;;;10.68;72.97
72465;BME280;60471;52.150;4.508;2023-04-30T01:58:09;102171.47;;;10.55;72.99
72465;BME280;60471;52.150;4.508;2023-04-30T02:00:38;102166.53;;;10.41;73.51
72465;BME280;60471;52.150;4.508;2023-04-30T02:03:04;102160.97;;;10.53;73.37
72465;BME280;60471;52.150;4.508;2023-04-30T02:05:30;102164.84;;;10.38;73.24
72465;BME280;60471;52.150;4.508;2023-04-30T02:07:57;102161.06;;;10.13;74.74
72465;BME280;60471;52.150;4.508;2023-04-30T02:10:24;102160.13;;;10.15;74.59
72465;BME280;60471;52.150;4.508;2023-04-30T02:12:52;102154.13;;;10.09;75.37
72465;BME280;60471;52.150;4.508;2023-04-30T02:15:19;102153.16;;;10.13;75.85
72465;BME280;60471;52.150;4.508;2023-04-30T02:17:45;102152.22;;;10.15;75.63
72465;BME280;60471;52.150;4.508;2023-04-30T02:20:11;102150.53;;;10.13;75.91
72465;BME280;60471;52.150;4.508;2023-04-30T02:22:38;102154.97;;;10.11;75.30
72465;BME280;60471;52.150;4.508;2023-04-30T02:25:04;102154.13;;;10.10;75.38
72465;BME280;60471;52.150;4.508;2023-04-30T02:27:32;102149.78;;;10.06;75.46
72465;BME280;60471;52.150;4.508;2023-04-30T02:29:59;102154.34;;;10.01;75.85
72465;BME280;60471;52.150;4.508;2023-04-30T02:32:25;102153.06;;;10.16;75.46
72465;BME280;60471;52.150;4.508;2023-04-30T02:34:51;102155.75;;;10.14;74.67
72465;BME280;60471;52.150;4.508;2023-04-30T02:37:18;102149.16;;;10.34;74.75
72465;BME280;60471;52.150;4.508;2023-04-30T02:39:44;102152.09;;;10.22;74.17
72465;BME280;60471;52.150;4.508;2023-04-30T02:42:10;102150.47;;;10.14;74.68
72465;BME280;60471;52.150;4.508;2023-04-30T02:44:39;102150.63;;;10.08;74.82
72465;BME280;60471;52.150;4.508;2023-04-30T02:47:05;102146.34;;;10.04;75.43
72465;BME280;60471;52.150;4.508;2023-04-30T02:49:32;102152.34;;;10.11;74.86
72465;BME280;60471;52.150;4.508;2023-04-30T02:51:58;102145.06;;;10.22;74.91
72465;BME280;60471;52.150;4.508;2023-04-30T02:54:24;102152.09;;;10.22;74.65
72465;BME280;60471;52.150;4.508;2023-04-30T02:56:50;102148.66;;;10.16;74.61
72465;BME280;60471;52.150;4.508;2023-04-30T02:59:17;102148.56;;;10.23;74.67
72465;BME280;60471;52.150;4.508;2023-04-30T03:01:43;102146.19;;;10.10;74.38
72465;BME280;60471;52.150;4.508;2023-04-30T03:04:09;102154.75;;;10.18;74.69
72465;BME280;60471;52.150;4.508;2023-04-30T03:06:35;102153.00;;;10.19;74.21
72465;BME280;60471;52.150;4.508;2023-04-30T03:09:02;102152.25;;;10.14;74.34
72465;BME280;60471;52.150;4.508;2023-04-30T03:11:28;102155.03;;;10.09;74.26
72465;BME280;60471;52.150;4.508;2023-04-30T03:13:54;102156.16;;;9.99;74.97
72465;BME280;60471;52.150;4.508;2023-04-30T03:16:21;102155.75;;;9.79;75.61
72465;BME280;60471;52.150;4.508;2023-04-30T03:18:48;102157.41;;;9.83;75.59
72465;BME280;60471;52.150;4.508;2023-04-30T03:21:14;102162.56;;;9.87;75.64
72465;BME280;60471;52.150;4.508;2023-04-30T03:23:41;102157.38;;;9.84;75.46
72465;BME280;60471;52.150;4.508;2023-04-30T03:26:07;102150.09;;;9.94;74.78
72465;BME280;60471;52.150;4.508;2023-04-30T03:28:33;102152.81;;;9.91;75.10
72465;BME280;60471;52.150;4.508;2023-04-30T03:31:01;102150.53;;;9.77;75.13
72465;BME280;60471;52.150;4.508;2023-04-30T03:33:31;102143.78;;;9.64;75.98
72465;BME280;60471;52.150;4.508;2023-04-30T03:35:59;102140.63;;;9.48;76.71
72465;BME280;60471;52.150;4.508;2023-04-30T03:38:25;102145.75;;;9.54;76.78
72465;BME280;60471;52.150;4.508;2023-04-30T03:40:51;102138.78;;;9.52;76.29
72465;BME280;60471;52.150;4.508;2023-04-30T03:43:17;102143.94;;;9.58;76.45
72465;BME280;60471;52.150;4.508;2023-04-30T03:45:43;102145.22;;;9.79;76.18
72465;BME280;60471;52.150;4.508;2023-04-30T03:48:10;102146.13;;;9.76;76.41
72465;BME280;60471;52.150;4.508;2023-04-30T03:50:36;102138.03;;;9.84;75.68
72465;BME280;60471;52.150;4.508;2023-04-30T03:53:02;102139.78;;;9.85;75.42
72465;BME280;60471;52.150;4.508;2023-04-30T03:55:29;102145.81;;;9.90;75.21
72465;BME280;60471;52.150;4.508;2023-04-30T03:57:55;102139.50;;;9.96;74.72
72465;BME280;60471;52.150;4.508;2023-04-30T04:00:22;102140.69;;;9.84;74.91
72465;BME280;60471;52.150;4.508;2023-04-30T04:02:48;102141.41;;;9.91;74.91
72465;BME280;60471;52.150;4.508;2023-04-30T04:05:15;102132.16;;;9.73;74.99
72465;BME280;60471;52.150;4.508;2023-04-30T04:07:41;102135.81;;;9.67;75.31
72465;BME280;60471;52.150;4.508;2023-04-30T04:10:07;102128.63;;;9.74;75.07
72465;BME280;60471;52.150;4.508;2023-04-30T04:12:34;102128.53;;;9.78;75.35
72465;BME280;60471;52.150;4.508;2023-04-30T04:15:00;102123.00;;;9.89;74.90
72465;BME280;60471;52.150;4.508;2023-04-30T04:17:26;102120.50;;;9.83;74.42
72465;BME280;60471;52.150;4.508;2023-04-30T04:19:53;102129.44;;;9.77;74.54
72465;BME280;60471;52.150;4.508;2023-04-30T04:22:19;102128.63;;;9.74;74.51
72465;BME280;60471;52.150;4.508;2023-04-30T04:24:45;102126.63;;;9.83;74.92
72465;BME280;60471;52.150;4.508;2023-04-30T04:27:12;102137.22;;;9.82;75.07
72465;BME280;60471;52.150;4.508;2023-04-30T04:29:38;102137.09;;;9.88;75.16
72465;BME280;60471;52.150;4.508;2023-04-30T04:32:05;102139.22;;;10.08;74.44
72465;BME280;60471;52.150;4.508;2023-04-30T04:34:31;102138.44;;;10.04;74.03
72465;BME280;60471;52.150;4.508;2023-04-30T04:36:58;102135.78;;;10.04;73.64
72465;BME280;60471;52.150;4.508;2023-04-30T04:39:24;102138.56;;;10.00;73.70
72465;BME280;60471;52.150;4.508;2023-04-30T04:41:50;102139.22;;;10.08;73.64
72465;BME280;60471;52.150;4.508;2023-04-30T04:44:16;102138.56;;;10.00;73.39
72465;BME280;60471;52.150;4.508;2023-04-30T04:46:43;102148.56;;;9.85;73.82
72465;BME280;60471;52.150;4.508;2023-04-30T04:49:10;102147.81;;;9.80;74.21
72465;BME280;60471;52.150;4.508;2023-04-30T04:51:37;102151.34;;;9.79;74.33
72465;BME280;60471;52.150;4.508;2023-04-30T04:54:04;102154.63;;;9.89;74.18
72465;BME280;60471;52.150;4.508;2023-04-30T04:56:31;102162.38;;;9.95;74.23
72465;BME280;60471;52.150;4.508;2023-04-30T04:58:57;102152.66;;;9.99;73.98
72465;BME280;60471;52.150;4.508;2023-04-30T05:01:24;102161.56;;;9.93;73.95
72465;BME280;60471;52.150;4.508;2023-04-30T05:03:50;102161.47;;;9.96;73.76
72465;BME280;60471;52.150;4.508;2023-04-30T05:06:18;102156.09;;;10.01;73.67
72465;BME280;60471;52.150;4.508;2023-04-30T05:08:44;102152.97;;;9.85;73.83
72465;BME280;60471;52.150;4.508;2023-04-30T05:11:11;102161.84;;;9.81;73.91
72465;BME280;60471;52.150;4.508;2023-04-30T05:13:37;102157.28;;;9.89;74.07
72465;BME280;60471;52.150;4.508;2023-04-30T05:16:03;102159.25;;;9.79;74.19
72465;BME280;60471;52.150;4.508;2023-04-30T05:18:29;102162.56;;;9.87;73.89
72465;BME280;60471;52.150;4.508;2023-04-30T05:20:56;102158.97;;;9.92;73.53
72465;BME280;60471;52.150;4.508;2023-04-30T05:23:22;102162.38;;;9.95;73.39
72465;BME280;60471;52.150;4.508;2023-04-30T05:25:52;102172.63;;;10.07;73.31
72465;BME280;60471;52.150;4.508;2023-04-30T05:28:18;102160.13;;;10.15;73.15
72465;BME280;60471;52.150;4.508;2023-04-30T05:30:44;102167.03;;;10.20;72.80
72465;BME280;60471;52.150;4.508;2023-04-30T05:33:13;102164.03;;;10.36;72.66
72465;BME280;60471;52.150;4.508;2023-04-30T05:35:39;102171.44;;;10.56;71.92
72465;BME280;60471;52.150;4.508;2023-04-30T05:38:05;102172.66;;;10.43;71.85
72465;BME280;60471;52.150;4.508;2023-04-30T05:40:31;102166.06;;;10.59;72.10
72465;BME280;60471;52.150;4.508;2023-04-30T05:42:58;102169.03;;;10.80;71.02
72465;BME280;60471;52.150;4.508;2023-04-30T05:45:24;102167.97;;;10.87;70.01
72465;BME280;60471;52.150;4.508;2023-04-30T05:47:50;102176.94;;;10.80;70.04
72465;BME280;60471;52.150;4.508;2023-04-30T05:50:16;102172.28;;;10.89;70.26
72465;BME280;60471;52.150;4.508;2023-04-30T05:52:43;102183.22;;;11.07;69.43
72465;BME280;60471;52.150;4.508;2023-04-30T05:55:09;102177.69;;;11.16;69.74
72465;BME280;60471;52.150;4.508;2023-04-30T05:57:36;102176.75;;;11.18;68.90
72465;BME280;60471;52.150;4.508;2023-04-30T06:00:02;102180.75;;;11.31;68.96
72465;BME280;60471;52.150;4.508;2023-04-30T06:02:31;102178.34;;;11.53;68.45
72465;BME280;60471;52.150;4.508;2023-04-30T06:04:57;102174.88;;;11.51;67.87
72465;BME280;60471;52.150;4.508;2023-04-30T06:07:24;102173.44;;;11.69;67.94
72465;BME280;60471;52.150;4.508;2023-04-30T06:09:50;102168.06;;;11.72;67.90
72465;BME280;60471;52.150;4.508;2023-04-30T06:12:16;102174.50;;;11.64;68.25
72465;BME280;60471;52.150;4.508;2023-04-30T06:14:42;102170.50;;;11.78;67.57
72465;BME280;60471;52.150;4.508;2023-04-30T06:17:11;102174.56;;;11.90;67.51
72465;BME280;60471;52.150;4.508;2023-04-30T06:19:38;102181.47;;;11.96;67.19
72465;BME280;60471;52.150;4.508;2023-04-30T06:22:04;102178.88;;;11.93;66.72
72465;BME280;60471;52.150;4.508;2023-04-30T06:24:31;102173.31;;;12.02;66.93
72465;BME280;60471;52.150;4.508;2023-04-30T06:26:57;102174.28;;;11.99;66.36
72465;BME280;60471;52.150;4.508;2023-04-30T06:29:23;102175.72;;;12.09;66.23
72465;BME280;60471;52.150;4.508;2023-04-30T06:31:49;102176.91;;;12.27;66.47
72465;BME280;60471;52.150;4.508;2023-04-30T06:34:18;102176.66;;;12.33;65.96
72465;BME280;60471;52.150;4.508;2023-04-30T06:36:45;102172.19;;;12.35;65.55
72465;BME280;60471;52.150;4.508;2023-04-30T06:39:15;102180.28;;;12.31;65.27
72465;BME280;60471;52.150;4.508;2023-04-30T06:41:42;102174.69;;;12.40;65.51
72465;BME280;60471;52.150;4.508;2023-04-30T06:44:08;102178.03;;;12.45;65.71
72465;BME280;60471;52.150;4.508;2023-04-30T06:46:34;102174.66;;;12.66;65.69
72465;BME280;60471;52.150;4.508;2023-04-30T06:49:00;102175.75;;;12.61;64.63
72465;BME280;60471;52.150;4.508;2023-04-30T06:51:29;102173.91;;;12.63;65.21
72465;BME280;60471;52.150;4.508;2023-04-30T06:53:55;102173.78;;;12.66;64.90
72465;BME280;60471;52.150;4.508;2023-04-30T06:56:22;102184.72;;;12.82;64.39
72465;BME280;60471;52.150;4.508;2023-04-30T06:58:48;102174.09;;;13.06;63.63
72465;BME280;60471;52.150;4.508;2023-04-30T07:01:15;102180.63;;;12.96;63.42
72465;BME280;60471;52.150;4.508;2023-04-30T07:03:42;102186.25;;;12.87;63.04
72465;BME280;60471;52.150;4.508;2023-04-30T07:06:08;102182.47;;;12.94;63.05
72465;BME280;60471;52.150;4.508;2023-04-30T07:08:35;102188.47;;;12.99;62.37
72465;BME280;60471;52.150;4.508;2023-04-30T07:11:01;102182.63;;;13.15;62.27
72465;BME280;60471;52.150;4.508;2023-04-30T07:13:27;102177.91;;;12.74;62.29
72465;BME280;60471;52.150;4.508;2023-04-30T07:15:53;102189.66;;;12.91;62.66
72465;BME280;60471;52.150;4.508;2023-04-30T07:18:20;102189.78;;;12.88;62.91
72465;BME280;60471;52.150;4.508;2023-04-30T07:20:46;102178.53;;;13.06;62.74
72465;BME280;60471;52.150;4.508;2023-04-30T07:23:12;102184.25;;;13.42;61.70
72465;BME280;60471;52.150;4.508;2023-04-30T07:25:38;102190.41;;;13.43;62.31
72465;BME280;60471;52.150;4.508;2023-04-30T07:28:05;102192.59;;;13.55;62.44
72465;BME280;60471;52.150;4.508;2023-04-30T07:30:31;102189.66;;;13.62;61.55
72465;BME280;60471;52.150;4.508;2023-04-30T07:32:57;102188.84;;;13.60;60.77
72465;BME280;60471;52.150;4.508;2023-04-30T07:35:23;102186.00;;;13.65;61.32
72465;BME280;60471;52.150;4.508;2023-04-30T07:37:49;102188.31;;;13.74;60.73
72465;BME280;60471;52.150;4.508;2023-04-30T07:40:16;102193.03;;;13.66;60.86
72465;BME280;60471;52.150;4.508;2023-04-30T07:42:42;102194.22;;;13.59;61.16
72465;BME280;60471;52.150;4.508;2023-04-30T07:45:10;102193.38;;;13.35;61.77
72465;BME280;60471;52.150;4.508;2023-04-30T07:47:37;102193.28;;;13.60;61.15
72465;BME280;60471;52.150;4.508;2023-04-30T07:50:04;102190.66;;;13.82;60.81
72465;BME280;60471;52.150;4.508;2023-04-30T07:52:31;102192.69;;;13.97;60.99
72465;BME280;60471;52.150;4.508;2023-04-30T07:54:57;102189.78;;;14.25;60.14
72465;BME280;60471;52.150;4.508;2023-04-30T07:57:23;102184.66;;;14.20;60.21
72465;BME280;60471;52.150;4.508;2023-04-30T07:59:54;102178.97;;;14.30;60.00
72465;BME280;60471;52.150;4.508;2023-04-30T08:02:21;102177.84;;;14.35;59.80
72465;BME280;60471;52.150;4.508;2023-04-30T08:04:50;102189.13;;;14.40;59.74
72465;BME280;60471;52.150;4.508;2023-04-30T08:07:16;102173.38;;;14.58;59.97
72465;BME280;60471;52.150;4.508;2023-04-30T08:09:42;102179.03;;;14.70;59.46
72465;BME280;60471;52.150;4.508;2023-04-30T08:12:09;102177.28;;;14.90;58.80
72465;BME280;60471;52.150;4.508;2023-04-30T08:14:35;102182.50;;;15.12;58.67
72465;BME280;60471;52.150;4.508;2023-04-30T08:17:01;102176.81;;;15.00;59.53
72465;BME280;60471;52.150;4.508;2023-04-30T08:19:28;102183.78;;;15.03;58.80
72465;BME280;60471;52.150;4.508;2023-04-30T08:21:54;102174.97;;;15.21;57.32
72465;BME280;60471;52.150;4.508;2023-04-30T08:24:20;102178.00;;;15.32;57.91
72465;BME280;60471;52.150;4.508;2023-04-30T08:26:46;102178.28;;;15.45;57.49
72465;BME280;60471;52.150;4.508;2023-04-30T08:29:13;102183.28;;;15.51;56.74
72465;BME280;60471;52.150;4.508;2023-04-30T08:31:39;102174.78;;;15.63;56.28
72465;BME280;60471;52.150;4.508;2023-04-30T08:34:05;102176.28;;;15.69;56.80
72465;BME280;60471;52.150;4.508;2023-04-30T08:36:31;102173.47;;;15.72;55.81
72465;BME280;60471;52.150;4.508;2023-04-30T08:38:57;102174.53;;;15.12;57.72
72465;BME280;60471;52.150;4.508;2023-04-30T08:41:25;102177.47;;;15.24;57.30
72465;BME280;60471;52.150;4.508;2023-04-30T08:43:54;102175.03;;;15.38;55.82
72465;BME280;60471;52.150;4.508;2023-04-30T08:46:28;102178.34;;;15.44;55.84
72465;BME280;60471;52.150;4.508;2023-04-30T08:48:57;102185.16;;;15.49;55.60
72465;BME280;60471;52.150;4.508;2023-04-30T08:51:24;102176.81;;;15.94;55.56
72465;BME280;60471;52.150;4.508;2023-04-30T08:53:53;102175.59;;;15.83;55.72
72465;BME280;60471;52.150;4.508;2023-04-30T08:56:19;102176.16;;;16.08;56.05
72465;BME280;60471;52.150;4.508;2023-04-30T08:58:46;102177.19;;;16.23;55.46
72465;BME280;60471;52.150;4.508;2023-04-30T09:01:12;102177.88;;;16.27;54.65
72465;BME280;60471;52.150;4.508;2023-04-30T09:03:38;102179.69;;;16.26;54.44
72465;BME280;60471;52.150;4.508;2023-04-30T09:06:04;102180.50;;;16.28;54.29
72465;BME280;60471;52.150;4.508;2023-04-30T09:08:44;102172.81;;;16.39;54.57
72465;BME280;60471;52.150;4.508;2023-04-30T09:11:30;102173.66;;;16.22;54.78
72465;BME280;60471;52.150;4.508;2023-04-30T09:13:58;102169.03;;;16.09;54.66
72465;BME280;60471;52.150;4.508;2023-04-30T09:16:27;102168.09;;;16.10;54.97
72465;BME280;60471;52.150;4.508;2023-04-30T09:18:58;102172.41;;;16.81;53.68
72465;BME280;60471;52.150;4.508;2023-04-30T09:21:30;102173.34;;;16.46;53.64
72465;BME280;60471;52.150;4.508;2023-04-30T09:24:02;102169.69;;;16.83;53.61
72465;BME280;60471;52.150;4.508;2023-04-30T09:26:35;102169.22;;;17.08;52.52
72465;BME280;60471;52.150;4.508;2023-04-30T09:29:03;102169.00;;;17.28;52.27
72465;BME280;60471;52.150;4.508;2023-04-30T09:31:34;102164.25;;;17.18;52.58
72465;BME280;60471;52.150;4.508;2023-04-30T09:34:01;102169.59;;;17.33;51.53
72465;BME280;60471;52.150;4.508;2023-04-30T09:36:29;102170.53;;;17.32;50.53
72465;BME280;60471;52.150;4.508;2023-04-30T09:39:05;102160.31;;;17.41;51.92
72465;BME280;60471;52.150;4.508;2023-04-30T09:41:36;102162.16;;;17.07;51.12
72465;BME280;60471;52.150;4.508;2023-04-30T09:44:03;102159.50;;;17.07;51.48
72465;BME280;60471;52.150;4.508;2023-04-30T09:46:30;102163.22;;;17.20;53.16
72465;BME280;60471;52.150;4.508;2023-04-30T09:49:00;102168.41;;;17.39;52.96
72465;BME280;60471;52.150;4.508;2023-04-30T09:51:27;102169.97;;;17.90;51.43
72465;BME280;60471;52.150;4.508;2023-04-30T09:53:54;102158.97;;;18.27;50.55
72465;BME280;60471;52.150;4.508;2023-04-30T09:56:25;102152.66;;;18.28;49.21
72465;BME280;60471;52.150;4.508;2023-04-30T09:58:53;102151.69;;;18.59;48.98
72465;BME280;60471;52.150;4.508;2023-04-30T10:01:22;102152.13;;;18.81;48.57
72465;BME280;60471;52.150;4.508;2023-04-30T10:03:52;102153.09;;;18.80;46.97
72465;BME280;60471;52.150;4.508;2023-04-30T10:06:23;102150.75;;;18.60;49.13
72465;BME280;60471;52.150;4.508;2023-04-30T10:08:55;102146.78;;;19.09;46.77
72465;BME280;60471;52.150;4.508;2023-04-30T10:11:27;102144.69;;;19.00;47.35
72465;BME280;60471;52.150;4.508;2023-04-30T10:14:01;102140.75;;;18.77;47.58
72465;BME280;60471;52.150;4.508;2023-04-30T10:17:00;102136.69;;;19.00;46.05
72465;BME280;60471;52.150;4.508;2023-04-30T10:19:35;102130.94;;;18.78;46.12
72465;BME280;60471;52.150;4.508;2023-04-30T10:22:06;102138.19;;;19.04;46.30
72465;BME280;60471;52.150;4.508;2023-04-30T10:24:34;102135.53;;;19.60;45.17
72465;BME280;60471;52.150;4.508;2023-04-30T10:27:01;102128.56;;;20.64;43.48
72465;BME280;60471;52.150;4.508;2023-04-30T10:29:27;102127.97;;;22.42;38.79
72465;BME280;60471;52.150;4.508;2023-04-30T10:31:54;102122.06;;;23.17;36.47
72465;BME280;60471;52.150;4.508;2023-04-30T10:34:42;102111.69;;;24.10;34.38
72465;BME280;60471;52.150;4.508;2023-04-30T10:37:33;102109.84;;;24.52;35.14
72465;BME280;60471;52.150;4.508;2023-04-30T10:40:05;102114.22;;;25.44;33.60
72465;BME280;60471;52.150;4.508;2023-04-30T10:42:35;102103.78;;;26.75;31.52
72465;BME280;60471;52.150;4.508;2023-04-30T10:45:02;102104.25;;;26.98;30.76
72465;BME280;60471;52.150;4.508;2023-04-30T10:47:29;102094.63;;;27.68;30.21
72465;BME280;60471;52.150;4.508;2023-04-30T10:50:07;102094.91;;;28.01;28.78
72465;BME280;60471;52.150;4.508;2023-04-30T10:52:36;102091.69;;;28.23;28.65
72465;BME280;60471;52.150;4.508;2023-04-30T10:55:05;102090.22;;;28.29;29.10
72465;BME280;60471;52.150;4.508;2023-04-30T10:57:42;102077.53;;;28.12;28.97
72465;BME280;60471;52.150;4.508;2023-04-30T11:02:40;102066.44;;;28.83;27.51
72465;BME280;60471;52.150;4.508;2023-04-30T11:05:13;102069.16;;;28.49;28.37
72465;BME280;60471;52.150;4.508;2023-04-30T11:07:48;102058.28;;;28.23;28.08
72465;BME280;60471;52.150;4.508;2023-04-30T11:10:16;102062.09;;;27.41;29.97
72465;BME280;60471;52.150;4.508;2023-04-30T11:12:47;102056.44;;;27.34;30.24
72465;BME280;60471;52.150;4.508;2023-04-30T11:15:16;102061.97;;;29.08;28.23
72465;BME280;60471;52.150;4.508;2023-04-30T11:17:46;102065.72;;;28.73;27.68
72465;BME280;60471;52.150;4.508;2023-04-30T11:20:18;102057.22;;;28.42;28.28
72465;BME280;60471;52.150;4.508;2023-04-30T11:22:46;102052.25;;;28.63;29.25
72465;BME280;60471;52.150;4.508;2023-04-30T11:25:17;102051.31;;;28.80;28.78
72465;BME280;60471;52.150;4.508;2023-04-30T11:27:44;102053.47;;;29.69;26.34
72465;BME280;60471;52.150;4.508;2023-04-30T11:30:15;102045.22;;;29.29;26.75
72465;BME280;60471;52.150;4.508;2023-04-30T11:32:44;102047.34;;;29.01;27.44
72465;BME280;60471;52.150;4.508;2023-04-30T11:35:14;102037.16;;;29.03;26.93
72465;BME280;60471;52.150;4.508;2023-04-30T11:37:44;102033.22;;;27.85;29.89
72465;BME280;60471;52.150;4.508;2023-04-30T11:40:12;102035.50;;;29.18;27.97
72465;BME280;60471;52.150;4.508;2023-04-30T11:42:40;102025.25;;;29.87;26.70
72465;BME280;60471;52.150;4.508;2023-04-30T11:45:13;102022.06;;;30.55;25.26
72465;BME280;60471;52.150;4.508;2023-04-30T11:47:47;102026.44;;;29.68;27.57
72465;BME280;60471;52.150;4.508;2023-04-30T11:50:17;102017.66;;;30.38;26.41
72465;BME280;60471;52.150;4.508;2023-04-30T11:52:50;102017.31;;;31.27;25.08
72465;BME280;60471;52.150;4.508;2023-04-30T11:55:24;102004.81;;;31.33;24.64
72465;BME280;60471;52.150;4.508;2023-04-30T11:57:53;102012.28;;;31.39;24.95
72465;BME280;60471;52.150;4.508;2023-04-30T12:00:26;102012.19;;;30.93;25.45
72465;BME280;60471;52.150;4.508;2023-04-30T12:02:54;102005.00;;;30.61;25.28
72465;BME280;60471;52.150;4.508;2023-04-30T12:05:23;102011.22;;;29.25;27.52
72465;BME280;60471;52.150;4.508;2023-04-30T12:07:55;101996.41;;;30.33;25.63
72465;BME280;60471;52.150;4.508;2023-04-30T12:10:23;101996.16;;;31.29;24.53
72465;BME280;60471;52.150;4.508;2023-04-30T12:12:52;101995.66;;;30.55;25.19
72465;BME280;60471;52.150;4.508;2023-04-30T12:15:20;101988.69;;;30.53;25.27
72465;BME280;60471;52.150;4.508;2023-04-30T12:17:52;101989.47;;;30.30;24.41
72465;BME280;60471;52.150;4.508;2023-04-30T12:20:20;101986.16;;;31.44;25.18
72465;BME280;60471;52.150;4.508;2023-04-30T12:22:48;101986.66;;;31.86;23.85
72465;BME280;60471;52.150;4.508;2023-04-30T12:25:17;101977.22;;;32.41;23.50
72465;BME280;60471;52.150;4.508;2023-04-30T12:27:49;101974.50;;;32.77;23.00
72465;BME280;60471;52.150;4.508;2023-04-30T12:30:21;101978.06;;;33.28;22.71
72465;BME280;60471;52.150;4.508;2023-04-30T12:32:51;101983.78;;;32.91;22.42
72465;BME280;60471;52.150;4.508;2023-04-30T12:35:20;101975.31;;;33.28;21.26
72465;BME280;60471;52.150;4.508;2023-04-30T12:37:52;101980.25;;;33.82;21.44
72465;BME280;60471;52.150;4.508;2023-04-30T12:53:27;101944.44;;;31.36;23.78
72465;BME280;60471;52.150;4.508;2023-04-30T12:56:16;101952.28;;;29.33;27.71
72465;BME280;60471;52.150;4.508;2023-04-30T12:58:46;101956.03;;;29.49;27.02
72465;BME280;60471;52.150;4.508;2023-04-30T13:01:17;101948.00;;;29.47;26.09
72465;BME280;60471;52.150;4.508;2023-04-30T13:03:51;101947.03;;;28.31;29.33
72465;BME280;60471;52.150;4.508;2023-04-30T13:06:18;101941.72;;;29.30;25.70
72465;BME280;60471;52.150;4.508;2023-04-30T13:08:46;101945.75;;;27.65;27.20
72465;BME280;60471;52.150;4.508;2023-04-30T13:11:12;101942.78;;;28.28;26.29
72465;BME280;60471;52.150;4.508;2023-04-30T13:13:38;101946.56;;;28.44;26.93
72465;BME280;60471;52.150;4.508;2023-04-30T13:16:05;101938.41;;;28.36;27.36
72465;BME280;60471;52.150;4.508;2023-04-30T13:18:32;101931.50;;;29.08;27.01
72465;BME280;60471;52.150;4.508;2023-04-30T13:20:58;101932.19;;;29.02;24.94
72465;BME280;60471;52.150;4.508;2023-04-30T13:23:24;101921.28;;;29.91;23.49
72465;BME280;60471;52.150;4.508;2023-04-30T13:25:50;101929.41;;;28.35;26.80
72465;BME280;60471;52.150;4.508;2023-04-30T13:28:17;101926.25;;;28.22;27.97